Weather at Ikar Jasło Airstrip

Public forecast

Using degrees Celsius for public forecast. Weather courtesy of forecast.io.

Closest aviation weather report (METAR) to Ikar Jasło Airstrip

Closest report is Rzeszów-Jasionka Airport, 29.2 nm (54.1 km) NE.

2024/05/20 19:30 (retrieved 19 minutes ago)

EPRZ 201930Z 20006KT CAVOK 15/13 Q1014

Closest aviation forecast (TAF) to Ikar Jasło Airstrip

Closest forecast is Rzeszów-Jasionka Airport, 29.2 nm (54.1 km) NE.

2024/05/20 18:33 (retrieved 1 hour ago)

TAF EPRZ 201730Z 2018/2118 VRB02KT CAVOK TEMPO 2018/2020 SHRA BKN040CB PROB40 2100/2103 2000 BR BECMG 2109/2112 13010KT PROB30 TEMPO 2111/2115 VRB15G25KT SHRA BKN040CB